createdAt,value
2023-01-06T11:25:37.660Z,183.20
2023-01-06T11:28:18.532Z,8.60
2023-01-06T11:30:53.368Z,7.50
2023-01-06T11:33:24.438Z,6.50
2023-01-06T11:36:05.849Z,8.70
2023-01-06T11:38:43.588Z,7.00
2023-01-06T11:41:24.767Z,12.70
2023-01-06T11:44:08.929Z,13.00
2023-01-06T11:46:40.795Z,7.50
2023-01-06T11:49:16.191Z,10.10
2023-01-06T11:51:49.178Z,25.80
2023-01-06T11:54:26.195Z,12.50
2023-01-06T11:57:25.916Z,11.80
2023-01-06T12:00:18.966Z,12.50
2023-01-06T12:03:01.096Z,29.00
2023-01-06T12:05:41.617Z,27.30
2023-01-06T12:08:17.997Z,23.60
2023-01-06T12:10:52.764Z,10.00
2023-01-06T12:13:24.511Z,10.40
2023-01-06T12:16:00.252Z,16.30
2023-01-06T12:18:33.016Z,12.60
2023-01-06T12:21:04.994Z,10.10
2023-01-06T12:23:38.274Z,8.80
2023-01-06T12:26:14.146Z,9.80
2023-01-06T12:28:52.538Z,8.30
2023-01-06T12:31:37.689Z,9.50
2023-01-06T12:34:15.862Z,11.60
2023-01-06T12:36:51.073Z,10.40
2023-01-06T12:39:28.122Z,8.80
2023-01-06T12:42:04.056Z,9.00
2023-01-06T12:44:45.708Z,10.50
2023-01-06T12:47:29.011Z,9.40
2023-01-06T12:50:02.228Z,12.80
2023-01-06T12:52:36.508Z,10.70
2023-01-06T12:55:12.830Z,8.90
2023-01-06T12:57:54.382Z,8.90
2023-01-06T13:00:48.876Z,13.30
2023-01-06T13:04:16.535Z,11.70
2023-01-06T13:06:59.665Z,12.30
2023-01-06T13:09:43.372Z,14.20
2023-01-06T13:12:41.568Z,13.70
2023-01-06T13:15:20.006Z,14.00
2023-01-06T13:20:28.786Z,11.60
2023-01-06T13:23:21.100Z,11.90
2023-01-06T13:26:12.000Z,13.40
2023-01-06T13:28:48.349Z,10.40
2023-01-06T13:31:40.602Z,11.20
2023-01-06T13:34:47.825Z,12.90
2023-01-06T13:37:39.008Z,15.10
2023-01-06T13:40:20.909Z,9.80
2023-01-06T13:42:55.340Z,13.00
2023-01-06T13:45:30.862Z,12.10
2023-01-06T13:48:08.710Z,15.10
2023-01-06T13:50:39.530Z,18.30
2023-01-06T13:53:18.324Z,18.50
2023-01-06T13:56:10.315Z,16.20
2023-01-06T13:58:41.300Z,12.90
2023-01-06T14:01:14.289Z,14.20
2023-01-06T14:03:47.783Z,10.10
2023-01-06T14:06:47.605Z,12.50
2023-01-06T14:09:21.912Z,10.60
2023-01-06T14:11:53.119Z,14.10
2023-01-06T14:14:29.948Z,11.60
2023-01-06T14:17:04.692Z,17.60
2023-01-06T14:19:37.867Z,15.90
2023-01-06T14:22:29.414Z,13.40
2023-01-06T14:25:06.722Z,14.50
2023-01-06T14:28:23.120Z,11.70
2023-01-06T14:31:41.128Z,12.10
2023-01-06T14:34:22.416Z,13.50
2023-01-06T14:36:55.669Z,12.60
2023-01-06T14:39:29.969Z,17.10
2023-01-06T14:42:03.888Z,12.20
2023-01-06T14:44:43.690Z,16.50
2023-01-06T14:47:27.322Z,17.40
2023-01-06T14:50:00.767Z,16.10
2023-01-06T14:52:34.242Z,19.40
2023-01-06T14:55:11.059Z,20.30
2023-01-06T14:57:41.631Z,29.30
2023-01-06T15:00:25.868Z,22.40
2023-01-06T15:03:25.666Z,20.20
2023-01-06T15:06:10.762Z,20.90
2023-01-06T15:08:39.894Z,23.70
2023-01-06T15:11:26.464Z,16.80
2023-01-06T15:14:01.308Z,14.50
2023-01-06T15:16:36.856Z,16.90
2023-01-06T15:19:12.272Z,22.50
2023-01-06T15:21:44.833Z,20.50
2023-01-06T15:24:24.183Z,20.90
2023-01-06T15:26:57.413Z,22.20
2023-01-06T15:29:26.818Z,25.20
2023-01-06T15:31:59.408Z,20.20
2023-01-06T15:34:36.995Z,19.80
2023-01-06T15:37:15.504Z,18.50
2023-01-06T15:39:50.028Z,19.20
2023-01-06T15:42:32.544Z,16.10
2023-01-06T15:45:07.621Z,17.60
2023-01-06T15:47:44.357Z,24.50
2023-01-06T15:50:23.806Z,26.70
2023-01-06T15:53:00.166Z,27.50
2023-01-06T15:55:33.546Z,48.30
2023-01-06T15:58:08.564Z,37.30
2023-01-06T16:00:44.671Z,30.50
2023-01-06T16:03:21.002Z,40.20
2023-01-06T16:06:10.859Z,34.50
2023-01-06T16:08:43.779Z,27.10
2023-01-06T16:11:46.957Z,23.60
2023-01-06T16:14:32.552Z,21.10
2023-01-06T16:17:11.603Z,22.90
2023-01-06T16:19:51.078Z,20.00
2023-01-06T16:22:48.378Z,22.80
2023-01-06T16:25:28.780Z,24.10
2023-01-06T16:28:00.699Z,25.80
2023-01-06T16:30:35.736Z,28.70
2023-01-06T16:33:22.437Z,25.20
2023-01-06T16:35:54.244Z,22.50
2023-01-06T16:38:28.726Z,20.20
2023-01-06T16:40:58.032Z,24.40
2023-01-06T16:43:28.900Z,23.10
2023-01-06T16:46:10.099Z,21.30
2023-01-06T16:48:39.459Z,20.00
2023-01-06T16:51:18.783Z,28.00
2023-01-06T16:53:53.030Z,28.50
2023-01-06T16:56:27.377Z,28.50
2023-01-06T16:59:02.270Z,24.20
2023-01-06T17:01:36.766Z,21.80
2023-01-06T17:04:10.783Z,24.40
2023-01-06T17:06:44.074Z,26.60
2023-01-06T17:09:19.283Z,22.80
2023-01-06T17:12:01.875Z,21.40
2023-01-06T17:14:31.341Z,23.80
2023-01-06T17:17:08.989Z,22.70
2023-01-06T17:19:38.963Z,22.70
2023-01-06T17:22:30.319Z,25.60
2023-01-06T17:25:09.537Z,20.70
2023-01-06T17:27:44.828Z,35.50
2023-01-06T17:30:24.070Z,35.40
2023-01-06T17:32:59.139Z,31.20
2023-01-06T17:35:31.905Z,29.20
2023-01-06T17:38:14.730Z,31.00
2023-01-06T17:44:14.761Z,32.70
2023-01-06T17:46:44.347Z,24.20
2023-01-06T17:49:36.432Z,31.60
2023-01-06T17:52:32.337Z,27.00
2023-01-06T17:55:42.485Z,29.90
2023-01-06T17:58:18.856Z,27.10
2023-01-06T18:00:56.827Z,35.50
2023-01-06T18:03:34.461Z,27.20
2023-01-06T18:06:21.154Z,32.60
2023-01-06T18:09:21.675Z,36.20
2023-01-06T18:12:04.934Z,32.90
2023-01-06T18:15:00.020Z,28.70
2023-01-06T18:17:41.832Z,26.60
2023-01-06T18:20:19.976Z,24.70
2023-01-06T18:23:03.104Z,30.80
2023-01-06T18:25:36.713Z,34.30
2023-01-06T18:28:15.833Z,31.60
2023-01-06T18:30:48.074Z,31.30
2023-01-06T18:33:17.775Z,32.10
2023-01-06T18:35:52.176Z,31.30
2023-01-06T18:38:22.500Z,35.00
2023-01-06T18:40:59.011Z,32.60
2023-01-06T18:43:33.793Z,30.50
2023-01-06T18:46:17.240Z,39.20
2023-01-06T18:48:48.368Z,37.80
2023-01-06T18:51:21.162Z,37.50
2023-01-06T18:53:52.730Z,37.60
2023-01-06T18:56:24.363Z,34.50
2023-01-06T18:59:14.528Z,39.70
2023-01-06T19:01:48.465Z,30.30
2023-01-06T19:04:28.375Z,37.80
2023-01-06T19:07:04.315Z,34.40
2023-01-06T19:09:38.043Z,36.40
2023-01-06T19:12:35.932Z,35.70
2023-01-06T19:15:26.734Z,27.90
2023-01-06T19:18:07.077Z,24.40
2023-01-06T19:20:42.186Z,28.40
2023-01-06T19:23:21.932Z,25.40
2023-01-06T19:25:58.423Z,36.20
2023-01-06T19:28:31.733Z,31.50
2023-01-06T19:31:03.030Z,33.00
2023-01-06T19:33:42.117Z,28.00
2023-01-06T19:36:35.455Z,29.40
2023-01-06T19:39:23.472Z,34.00
2023-01-06T19:41:54.080Z,35.20
2023-01-06T19:44:32.138Z,29.90
2023-01-06T19:47:11.010Z,32.80
2023-01-06T19:49:47.140Z,27.40
2023-01-06T19:52:31.054Z,36.50
2023-01-06T19:55:21.650Z,28.10
2023-01-06T19:57:54.119Z,33.50
2023-01-06T20:00:29.879Z,29.90
2023-01-06T20:03:09.352Z,28.20
2023-01-06T20:05:38.685Z,24.00
2023-01-06T20:08:13.966Z,28.70
2023-01-06T20:10:43.887Z,29.30
2023-01-06T20:13:15.022Z,32.40
2023-01-06T20:15:47.656Z,31.60
2023-01-06T20:18:18.551Z,29.30
2023-01-06T20:20:51.223Z,25.70
2023-01-06T20:23:25.099Z,28.90
2023-01-06T20:26:05.155Z,30.80
2023-01-06T20:28:36.780Z,32.40
2023-01-06T20:31:06.109Z,27.40
2023-01-06T20:33:35.089Z,25.30
2023-01-06T20:36:05.482Z,22.50
2023-01-06T20:38:36.588Z,31.00
2023-01-06T20:41:17.277Z,30.40
2023-01-06T20:43:48.173Z,31.90
2023-01-06T20:46:19.703Z,29.70
2023-01-06T20:48:51.074Z,29.90
2023-01-06T20:51:22.769Z,28.80
2023-01-06T20:53:56.436Z,26.90
2023-01-06T20:56:28.462Z,25.90
2023-01-06T20:59:02.414Z,26.60
2023-01-06T21:01:35.533Z,27.60
2023-01-06T21:04:05.044Z,30.90
2023-01-06T21:06:36.502Z,29.80
2023-01-06T21:09:07.567Z,29.60
2023-01-06T21:11:37.957Z,24.40
2023-01-06T21:14:08.059Z,32.00
2023-01-06T21:16:37.624Z,28.90
2023-01-06T21:19:06.475Z,30.20
2023-01-06T21:21:35.255Z,38.90
2023-01-06T21:24:04.544Z,38.10
2023-01-06T21:26:37.062Z,42.40
2023-01-06T21:29:05.999Z,41.50
2023-01-06T21:31:36.674Z,41.30
2023-01-06T21:34:07.786Z,41.60
2023-01-06T21:36:37.074Z,37.90
2023-01-06T21:39:08.577Z,39.50
2023-01-06T21:41:57.088Z,42.30
2023-01-06T21:44:27.878Z,33.30
2023-01-06T21:47:00.697Z,36.70
2023-01-06T21:49:34.404Z,32.00
2023-01-06T21:52:05.452Z,24.20
2023-01-06T21:54:35.224Z,21.60
2023-01-06T21:57:05.786Z,23.90
2023-01-06T21:59:38.341Z,26.60
2023-01-06T22:02:09.297Z,24.80
2023-01-06T22:04:38.987Z,23.70
2023-01-06T22:07:09.457Z,25.40
2023-01-06T22:09:40.745Z,24.00
2023-01-06T22:12:12.886Z,20.60
2023-01-06T22:14:43.445Z,20.40
2023-01-06T22:17:12.952Z,40.10
2023-01-06T22:19:44.275Z,27.20
2023-01-06T22:22:13.558Z,29.30
2023-01-06T22:24:42.687Z,33.60
2023-01-06T22:27:11.483Z,28.30
2023-01-06T22:29:40.178Z,24.50
2023-01-06T22:32:12.807Z,20.90
2023-01-06T22:34:41.743Z,22.10
2023-01-06T22:37:11.497Z,21.60
2023-01-06T22:39:42.950Z,22.70
2023-01-06T22:42:11.530Z,20.90
2023-01-06T22:44:41.363Z,24.10
2023-01-06T22:47:12.342Z,20.50
2023-01-06T22:49:41.193Z,26.60
2023-01-06T22:52:12.987Z,32.00
2023-01-06T22:54:41.688Z,30.30
2023-01-06T22:57:11.942Z,33.70
2023-01-06T22:59:41.174Z,28.20
2023-01-06T23:02:12.279Z,39.20
2023-01-06T23:04:43.444Z,38.30
2023-01-06T23:07:13.560Z,30.60
2023-01-06T23:09:44.120Z,27.10
2023-01-06T23:12:13.926Z,23.90
2023-01-06T23:14:42.588Z,23.90
2023-01-06T23:17:12.532Z,25.80
2023-01-06T23:19:42.145Z,28.30
2023-01-06T23:22:13.000Z,26.90
2023-01-06T23:24:44.221Z,30.40
2023-01-06T23:27:16.168Z,26.50
2023-01-06T23:29:48.258Z,30.80
2023-01-06T23:32:17.586Z,27.40
2023-01-06T23:34:47.337Z,26.70
2023-01-06T23:37:17.234Z,26.40
2023-01-06T23:39:52.594Z,28.40
2023-01-06T23:42:34.392Z,28.00
2023-01-06T23:45:08.033Z,27.00
2023-01-06T23:47:37.117Z,28.60
2023-01-06T23:50:07.179Z,23.60
2023-01-06T23:52:36.361Z,25.60
2023-01-06T23:55:06.834Z,26.10
2023-01-06T23:57:36.197Z,31.50
